createdAt,value
2022-10-05T03:29:09.215Z,0.00
2022-10-05T03:30:09.148Z,0.00
2022-10-05T03:31:09.265Z,0.00
2022-10-05T03:32:09.126Z,0.00
2022-10-05T03:33:09.120Z,0.00
2022-10-05T03:34:09.137Z,0.00
2022-10-05T03:35:09.097Z,0.00
2022-10-05T03:36:09.087Z,0.00
2022-10-05T03:37:09.071Z,0.00
2022-10-05T03:38:09.108Z,0.00
2022-10-05T03:39:09.142Z,0.00
2022-10-05T03:40:14.326Z,0.00
2022-10-05T03:41:09.058Z,0.00
2022-10-05T03:42:09.017Z,0.00
2022-10-05T03:43:09.000Z,0.00
2022-10-05T03:44:09.000Z,0.00
2022-10-05T03:45:09.010Z,0.00
2022-10-05T03:46:09.039Z,0.00
2022-10-05T03:47:09.266Z,0.00
2022-10-05T03:48:09.242Z,0.00
2022-10-05T03:49:09.433Z,0.00
2022-10-05T03:50:09.065Z,0.00
2022-10-05T03:51:14.208Z,0.00
2022-10-05T03:52:09.029Z,0.00
2022-10-05T03:53:08.903Z,0.00
2022-10-05T03:54:08.914Z,0.00
2022-10-05T03:55:08.882Z,0.00
2022-10-05T03:56:08.861Z,0.00
2022-10-05T03:57:08.913Z,0.00
2022-10-05T03:58:08.829Z,0.00
2022-10-05T03:59:08.838Z,0.00
2022-10-05T04:00:08.810Z,0.00
2022-10-05T04:01:08.884Z,0.00
2022-10-05T04:02:13.839Z,0.00
2022-10-05T04:03:08.814Z,0.00
2022-10-05T04:04:08.778Z,0.00
2022-10-05T04:05:08.752Z,0.00
2022-10-05T04:06:08.804Z,0.00
2022-10-05T04:07:08.736Z,0.00
2022-10-05T04:08:08.744Z,0.00
2022-10-05T04:09:08.723Z,0.00
2022-10-05T04:10:08.693Z,0.00
2022-10-05T04:11:08.688Z,0.00
2022-10-05T04:12:08.670Z,0.00
2022-10-05T04:13:13.685Z,0.00
2022-10-05T04:14:08.671Z,0.00
2022-10-05T04:15:08.639Z,0.00
2022-10-05T04:16:08.739Z,0.00
2022-10-05T04:17:08.634Z,0.00
2022-10-05T04:18:08.604Z,0.00
2022-10-05T04:19:08.625Z,0.00
2022-10-05T04:20:08.593Z,0.00
2022-10-05T04:21:08.571Z,0.00
2022-10-05T04:22:08.559Z,0.00
2022-10-05T04:23:08.560Z,0.00
2022-10-05T04:24:13.561Z,0.00
2022-10-05T04:25:08.580Z,0.00
2022-10-05T04:26:08.510Z,0.00
2022-10-05T04:27:08.501Z,0.00
2022-10-05T04:28:08.533Z,0.00
2022-10-05T04:29:08.515Z,0.00
2022-10-05T04:30:08.478Z,0.00
2022-10-05T04:31:08.490Z,0.00
2022-10-05T04:32:08.442Z,0.00
2022-10-05T04:33:08.452Z,0.00
2022-10-05T04:34:08.424Z,0.00
2022-10-05T04:35:13.453Z,0.00
2022-10-05T04:36:08.435Z,0.00
2022-10-05T04:37:08.393Z,0.00
2022-10-05T04:38:08.383Z,0.00
2022-10-05T04:39:08.551Z,0.00
2022-10-05T04:40:08.370Z,0.00
2022-10-05T04:41:08.474Z,0.00
2022-10-05T04:42:08.348Z,0.00
2022-10-05T04:43:08.319Z,0.00
2022-10-05T04:44:08.334Z,0.00
2022-10-05T04:45:08.314Z,0.00
2022-10-05T04:46:13.414Z,0.00
2022-10-05T04:47:08.347Z,0.00
2022-10-05T04:48:08.377Z,0.00
2022-10-05T04:49:08.305Z,0.00
2022-10-05T04:50:08.265Z,0.00
2022-10-05T04:51:08.229Z,0.00
2022-10-05T04:52:08.222Z,0.00
2022-10-05T04:53:08.211Z,0.00
2022-10-05T04:54:08.224Z,0.00
2022-10-05T04:55:08.203Z,0.00
2022-10-05T04:56:08.172Z,0.00
2022-10-05T04:57:13.194Z,0.00
2022-10-05T04:58:08.148Z,0.00
2022-10-05T04:59:08.137Z,0.00
2022-10-05T05:00:08.126Z,0.00
2022-10-05T05:01:08.180Z,0.00
2022-10-05T05:02:08.115Z,0.00
2022-10-05T05:03:08.105Z,0.00
2022-10-05T05:04:08.151Z,0.00
2022-10-05T05:05:08.095Z,0.00
2022-10-05T05:06:19.026Z,0.00
2022-10-05T05:07:09.052Z,0.00
2022-10-05T05:08:13.058Z,0.00
2022-10-05T05:09:08.046Z,4.00
2022-10-05T05:10:08.014Z,0.00
2022-10-05T05:11:10.382Z,0.00
2022-10-05T05:12:09.019Z,4.00
2022-10-05T05:13:07.996Z,4.00
2022-10-05T05:14:07.988Z,4.00
2022-10-05T05:15:08.035Z,4.00
2022-10-05T05:16:08.015Z,4.00
2022-10-05T05:17:12.305Z,8.00
2022-10-05T05:18:08.929Z,4.00
2022-10-05T05:19:12.950Z,8.00
2022-10-05T05:20:07.966Z,12.00
2022-10-05T05:21:07.955Z,8.00
2022-10-05T05:22:07.990Z,16.00
2022-10-05T05:23:07.947Z,12.00
2022-10-05T05:24:07.868Z,16.00
2022-10-05T05:25:07.849Z,20.00
2022-10-05T05:26:07.855Z,24.00
2022-10-05T05:27:07.833Z,24.00
2022-10-05T05:28:08.052Z,28.00
2022-10-05T05:29:07.818Z,32.00
2022-10-05T05:30:12.809Z,36.00
2022-10-05T05:31:07.827Z,40.00
2022-10-05T05:32:07.765Z,40.00
2022-10-05T05:33:07.771Z,44.00
2022-10-05T05:34:07.777Z,52.00
2022-10-05T05:35:07.747Z,56.00
2022-10-05T05:36:07.728Z,64.00
2022-10-05T05:37:07.814Z,68.00
2022-10-05T05:38:07.721Z,72.00
2022-10-05T05:39:07.690Z,80.00
2022-10-05T05:40:07.681Z,88.00
2022-10-05T05:41:12.776Z,92.00
2022-10-05T05:42:07.649Z,104.00
2022-10-05T05:43:07.639Z,108.00
2022-10-05T05:44:07.640Z,116.00
2022-10-05T05:45:07.625Z,124.00
2022-10-05T05:46:07.605Z,136.00
2022-10-05T05:47:07.935Z,140.00
2022-10-05T05:48:07.592Z,148.00
2022-10-05T05:49:07.576Z,156.00
2022-10-05T05:50:07.894Z,156.00
2022-10-05T05:51:07.557Z,168.00
2022-10-05T05:52:12.698Z,184.00
2022-10-05T05:53:07.525Z,184.00
2022-10-05T05:54:07.517Z,188.00
2022-10-05T05:55:07.505Z,196.00
2022-10-05T05:56:07.506Z,208.00
2022-10-05T05:57:07.487Z,200.00
2022-10-05T05:58:07.471Z,216.00
2022-10-05T05:59:07.458Z,220.00
2022-10-05T06:00:07.445Z,256.00
2022-10-05T06:01:13.186Z,236.00
2022-10-05T06:02:08.496Z,236.00
2022-10-05T06:03:12.545Z,240.00
2022-10-05T06:04:07.399Z,280.00
2022-10-05T06:05:07.390Z,232.00
2022-10-05T06:06:07.394Z,272.00
2022-10-05T06:07:07.371Z,296.00
2022-10-05T06:08:07.399Z,308.00
2022-10-05T06:09:07.357Z,280.00
2022-10-05T06:10:07.332Z,356.00
2022-10-05T06:11:07.388Z,292.00
2022-10-05T06:12:07.311Z,328.00
2022-10-05T06:13:07.335Z,264.00
2022-10-05T06:14:12.317Z,308.00
2022-10-05T06:15:07.277Z,280.00
2022-10-05T06:16:07.378Z,296.00
2022-10-05T06:17:07.276Z,320.00
2022-10-05T06:18:07.245Z,332.00
2022-10-05T06:19:07.234Z,312.00
2022-10-05T06:20:07.218Z,360.00
2022-10-05T06:21:07.220Z,444.00
2022-10-05T06:22:07.202Z,448.00
2022-10-05T06:23:07.193Z,424.00
2022-10-05T06:24:07.192Z,412.00
2022-10-05T06:25:12.211Z,436.00
2022-10-05T06:26:10.695Z,480.00
2022-10-05T06:27:07.159Z,472.00
2022-10-05T06:28:07.218Z,432.00
2022-10-05T06:29:07.120Z,552.00
2022-10-05T06:30:07.108Z,560.00
2022-10-05T06:31:07.157Z,492.00
2022-10-05T06:32:07.132Z,460.00
2022-10-05T06:33:07.072Z,540.00
2022-10-05T06:34:07.072Z,512.00
2022-10-05T06:35:07.067Z,620.00
2022-10-05T06:36:12.067Z,600.00
2022-10-05T06:37:07.045Z,612.00
2022-10-05T06:38:07.014Z,600.00
2022-10-05T06:39:07.007Z,716.00
2022-10-05T06:40:07.013Z,640.00
2022-10-05T06:41:06.995Z,564.00
2022-10-05T06:42:06.980Z,780.00
2022-10-05T06:43:06.959Z,956.00
2022-10-05T06:44:06.963Z,1100.00
2022-10-05T06:45:06.938Z,948.00
2022-10-05T06:46:06.995Z,968.00
2022-10-05T06:47:11.957Z,1068.00
2022-10-05T06:48:06.908Z,1132.00
2022-10-05T06:49:06.898Z,1076.00
2022-10-05T06:50:06.917Z,1024.00
2022-10-05T06:51:06.873Z,1024.00
2022-10-05T06:52:06.878Z,940.00
2022-10-05T06:53:06.847Z,976.00
2022-10-05T06:54:06.836Z,1196.00
2022-10-05T06:55:09.565Z,1152.00
2022-10-05T06:56:07.850Z,1248.00
2022-10-05T06:57:06.814Z,1400.00
2022-10-05T06:58:11.812Z,1184.00
2022-10-05T06:59:06.780Z,1248.00
2022-10-05T07:00:06.779Z,1528.00
2022-10-05T07:01:06.850Z,1768.00
2022-10-05T07:02:06.834Z,2108.00
2022-10-05T07:03:06.732Z,1944.00
2022-10-05T07:04:06.721Z,1568.00
2022-10-05T07:05:06.710Z,1736.00
2022-10-05T07:06:06.714Z,1540.00
2022-10-05T07:07:06.688Z,1464.00
2022-10-05T07:08:06.689Z,1272.00
2022-10-05T07:09:11.690Z,1248.00
2022-10-05T07:10:06.666Z,1252.00
2022-10-05T07:11:06.685Z,1324.00
2022-10-05T07:12:07.312Z,1236.00
2022-10-05T07:13:06.648Z,1160.00
2022-10-05T07:14:06.773Z,1040.00
2022-10-05T07:15:06.597Z,1080.00
2022-10-05T07:16:06.648Z,1168.00
2022-10-05T07:17:06.579Z,1352.00
2022-10-05T07:18:06.585Z,1524.00
2022-10-05T07:19:06.556Z,1824.00
2022-10-05T07:20:11.582Z,1452.00
2022-10-05T07:21:06.531Z,1196.00
2022-10-05T07:23:06.518Z,1108.00
2022-10-05T07:24:06.517Z,1148.00
2022-10-05T07:25:06.493Z,1468.00
2022-10-05T07:26:06.477Z,1524.00
2022-10-05T07:27:06.461Z,1420.00
2022-10-05T07:28:06.567Z,1440.00
2022-10-05T07:29:06.455Z,1660.00
2022-10-05T07:30:06.427Z,1784.00
2022-10-05T07:31:11.546Z,1980.00
2022-10-05T07:32:06.408Z,2260.00
2022-10-05T07:33:06.410Z,1996.00
2022-10-05T07:34:06.381Z,2292.00
2022-10-05T07:35:06.368Z,2224.00
2022-10-05T07:36:06.363Z,2160.00
2022-10-05T07:37:06.350Z,2000.00
2022-10-05T07:38:06.334Z,1960.00
2022-10-05T07:39:06.334Z,1984.00
2022-10-05T07:40:06.312Z,1720.00
2022-10-05T07:41:06.325Z,1444.00
2022-10-05T07:42:11.312Z,1580.00
2022-10-05T07:43:06.282Z,1596.00
2022-10-05T07:44:11.658Z,1556.00
2022-10-05T07:45:07.255Z,1668.00
2022-10-05T07:46:06.309Z,1692.00
2022-10-05T07:47:06.233Z,1816.00
2022-10-05T07:48:06.226Z,2108.00
2022-10-05T07:49:06.221Z,2404.00
2022-10-05T07:50:06.209Z,2804.00
2022-10-05T07:51:06.191Z,3564.00
2022-10-05T07:52:06.188Z,4940.00
2022-10-05T07:53:11.188Z,6028.00
2022-10-05T07:54:06.168Z,6852.00
2022-10-05T07:55:06.143Z,6396.00
2022-10-05T07:56:06.133Z,5716.00
2022-10-05T07:57:06.171Z,4952.00
2022-10-05T07:58:06.121Z,2692.00
2022-10-05T07:59:06.255Z,1516.00
2022-10-05T08:00:06.134Z,1372.00
2022-10-05T08:01:06.076Z,1368.00
2022-10-05T08:02:06.308Z,1380.00
2022-10-05T08:03:06.122Z,1504.00
2022-10-05T08:04:11.254Z,1972.00
2022-10-05T08:05:06.108Z,2816.00
2022-10-05T08:06:06.041Z,4052.00
2022-10-05T08:07:06.005Z,4328.00
2022-10-05T08:08:06.016Z,3500.00
2022-10-05T08:09:06.007Z,2280.00
2022-10-05T08:10:05.973Z,2524.00
2022-10-05T08:11:06.177Z,2192.00
2022-10-05T08:12:05.964Z,3720.00
2022-10-05T08:13:05.933Z,3028.00
2022-10-05T08:14:05.930Z,3532.00
2022-10-05T08:15:10.977Z,3108.00
2022-10-05T08:16:06.096Z,2444.00
2022-10-05T08:17:05.887Z,2396.00
2022-10-05T08:18:05.882Z,2644.00
2022-10-05T08:19:05.865Z,2572.00
2022-10-05T08:20:05.867Z,2040.00
2022-10-05T08:21:05.904Z,1972.00
2022-10-05T08:22:05.834Z,2076.00
2022-10-05T08:23:05.820Z,2132.00
2022-10-05T08:24:05.814Z,2968.00
2022-10-05T08:25:05.823Z,3844.00
2022-10-05T08:26:10.810Z,3516.00
2022-10-05T08:27:05.782Z,2552.00
2022-10-05T08:28:05.821Z,2004.00
2022-10-05T08:29:08.204Z,1772.00
2022-10-05T08:30:05.760Z,2180.00
2022-10-05T08:31:05.850Z,3388.00
2022-10-05T08:32:05.831Z,2332.00
2022-10-05T08:33:05.709Z,3420.00
2022-10-05T08:34:05.943Z,3196.00
2022-10-05T08:35:05.814Z,2352.00
2022-10-05T08:36:05.756Z,1656.00
2022-10-05T08:37:10.687Z,1608.00
2022-10-05T08:38:05.650Z,1772.00
2022-10-05T08:39:05.646Z,2032.00
2022-10-05T08:40:05.639Z,1852.00
2022-10-05T08:41:05.618Z,1756.00
2022-10-05T08:42:05.606Z,1832.00
2022-10-05T08:43:05.610Z,1956.00
2022-10-05T08:44:05.594Z,1796.00
2022-10-05T08:45:05.582Z,1680.00
2022-10-05T08:46:05.620Z,1740.00
2022-10-05T08:47:05.584Z,1764.00
2022-10-05T08:48:10.562Z,1936.00
2022-10-05T08:49:05.531Z,1780.00
2022-10-05T08:50:05.531Z,2008.00
2022-10-05T08:51:05.505Z,1928.00
2022-10-05T08:52:05.493Z,1780.00
2022-10-05T08:53:05.480Z,1724.00
2022-10-05T08:54:05.474Z,1568.00
2022-10-05T08:55:05.527Z,1584.00
2022-10-05T08:56:05.460Z,1600.00
2022-10-05T08:57:05.449Z,1632.00
2022-10-05T08:58:05.429Z,1688.00
2022-10-05T08:59:10.483Z,2436.00
2022-10-05T09:00:05.411Z,2772.00
2022-10-05T09:01:05.453Z,2648.00
2022-10-05T09:02:05.499Z,3116.00
2022-10-05T09:03:05.397Z,2412.00
2022-10-05T09:04:05.357Z,2920.00
2022-10-05T09:05:05.353Z,2000.00
2022-10-05T09:06:05.333Z,1736.00
2022-10-05T09:07:05.321Z,1636.00
2022-10-05T09:08:05.311Z,1616.00
2022-10-05T09:09:05.298Z,1688.00
2022-10-05T09:10:10.402Z,2076.00
2022-10-05T09:11:05.276Z,1972.00
2022-10-05T09:12:05.266Z,1716.00
2022-10-05T09:13:05.257Z,1576.00
2022-10-05T09:14:05.264Z,1600.00
2022-10-05T09:15:25.000Z,1700.00
2022-10-05T09:16:06.339Z,1768.00
2022-10-05T09:17:05.214Z,2232.00
2022-10-05T09:18:05.200Z,2384.00
2022-10-05T09:19:05.224Z,2672.00
2022-10-05T09:20:05.204Z,2400.00
2022-10-05T09:21:10.193Z,1884.00
2022-10-05T09:22:05.153Z,1872.00
2022-10-05T09:23:05.206Z,2168.00
2022-10-05T09:24:05.149Z,2008.00
2022-10-05T09:25:05.171Z,1616.00
2022-10-05T09:26:05.181Z,1652.00
2022-10-05T09:27:05.107Z,1736.00
2022-10-05T09:28:05.155Z,2116.00
2022-10-05T09:29:05.093Z,2368.00
2022-10-05T09:30:05.080Z,1584.00
2022-10-05T09:31:05.158Z,1600.00
2022-10-05T09:32:15.584Z,1604.00
2022-10-05T09:33:06.181Z,1712.00
2022-10-05T09:34:05.020Z,1640.00
2022-10-05T09:35:05.030Z,1656.00
2022-10-05T09:36:05.014Z,1644.00
2022-10-05T09:37:04.991Z,1624.00
2022-10-05T09:38:04.993Z,1656.00
2022-10-05T09:39:05.003Z,1668.00
2022-10-05T09:40:04.955Z,1704.00
2022-10-05T09:41:04.965Z,1752.00
2022-10-05T09:42:04.928Z,1936.00
2022-10-05T09:43:09.943Z,1936.00
2022-10-05T09:44:04.930Z,2024.00
2022-10-05T09:45:04.895Z,2236.00
2022-10-05T09:46:04.984Z,3116.00
2022-10-05T09:47:04.872Z,3408.00
2022-10-05T09:48:04.859Z,2516.00
2022-10-05T09:49:04.849Z,1936.00
2022-10-05T09:50:04.839Z,1812.00
2022-10-05T09:51:04.879Z,1784.00
2022-10-05T09:52:04.833Z,1772.00
2022-10-05T09:53:04.815Z,1832.00
2022-10-05T09:54:09.832Z,1732.00
2022-10-05T09:55:04.789Z,1772.00
2022-10-05T09:56:04.815Z,1808.00
2022-10-05T09:57:04.766Z,2208.00
2022-10-05T09:58:04.748Z,2452.00
2022-10-05T09:59:04.740Z,2816.00
2022-10-05T10:00:04.802Z,3192.00
2022-10-05T10:01:09.982Z,2620.00
2022-10-05T10:02:05.778Z,2740.00
2022-10-05T10:03:04.765Z,3436.00
2022-10-05T10:04:04.708Z,3960.00
2022-10-05T10:05:09.688Z,6772.00
2022-10-05T10:06:04.673Z,8156.00
2022-10-05T10:07:04.663Z,8544.00
2022-10-05T10:08:04.639Z,2992.00
2022-10-05T10:09:04.628Z,2496.00
2022-10-05T10:10:04.612Z,2348.00
2022-10-05T10:11:04.613Z,2188.00
2022-10-05T10:12:04.591Z,2228.00
2022-10-05T10:13:04.600Z,1984.00
2022-10-05T10:14:04.584Z,1976.00
2022-10-05T10:15:04.555Z,1960.00
2022-10-05T10:16:09.664Z,1924.00
2022-10-05T10:17:04.547Z,1920.00
2022-10-05T10:18:04.519Z,1940.00
2022-10-05T10:19:04.538Z,3752.00
2022-10-05T10:20:04.523Z,1972.00
2022-10-05T10:21:04.485Z,2112.00
2022-10-05T10:22:04.490Z,2140.00
2022-10-05T10:23:04.562Z,1904.00
2022-10-05T10:24:04.454Z,4676.00
2022-10-05T10:25:04.445Z,1936.00
2022-10-05T10:26:04.432Z,1928.00
2022-10-05T10:27:09.450Z,2008.00
2022-10-05T10:28:04.533Z,1996.00
2022-10-05T10:29:04.404Z,2020.00
2022-10-05T10:30:04.390Z,2600.00
2022-10-05T10:31:04.442Z,2472.00
2022-10-05T10:32:04.370Z,5264.00
2022-10-05T10:33:04.361Z,7064.00
2022-10-05T10:34:04.346Z,6580.00
2022-10-05T10:35:04.358Z,2516.00
2022-10-05T10:36:06.861Z,2216.00
2022-10-05T10:37:04.322Z,1964.00
2022-10-05T10:38:09.480Z,1896.00
2022-10-05T10:39:04.282Z,1828.00
2022-10-05T10:40:04.272Z,1836.00
2022-10-05T10:41:04.267Z,2156.00
2022-10-05T10:42:04.259Z,3192.00
2022-10-05T10:43:04.236Z,6116.00
2022-10-05T10:44:04.233Z,5808.00
2022-10-05T10:45:04.217Z,2524.00
2022-10-05T10:46:04.271Z,3208.00
2022-10-05T10:47:04.215Z,1952.00
2022-10-05T10:48:04.216Z,1924.00
2022-10-05T10:49:09.191Z,3208.00
2022-10-05T10:50:04.168Z,4500.00
2022-10-05T10:51:04.166Z,1960.00
2022-10-05T10:52:04.149Z,1956.00
2022-10-05T10:53:04.149Z,1812.00
2022-10-05T10:54:04.143Z,2816.00
2022-10-05T10:55:04.100Z,3628.00
2022-10-05T10:56:04.091Z,1864.00
2022-10-05T10:57:04.089Z,2172.00
2022-10-05T10:58:04.069Z,1736.00
2022-10-05T10:59:04.055Z,1740.00
2022-10-05T11:00:09.089Z,1796.00
2022-10-05T11:01:04.039Z,2728.00
2022-10-05T11:02:04.198Z,2464.00
2022-10-05T11:03:04.122Z,2124.00
2022-10-05T11:04:03.996Z,1884.00
2022-10-05T11:05:03.989Z,1876.00
2022-10-05T11:06:03.980Z,1972.00
2022-10-05T11:07:03.987Z,1952.00
2022-10-05T11:08:03.987Z,2356.00
2022-10-05T11:09:03.966Z,2968.00
2022-10-05T11:10:03.969Z,3456.00
2022-10-05T11:11:08.963Z,2140.00
2022-10-05T11:12:03.914Z,2240.00
2022-10-05T11:13:03.926Z,2328.00
2022-10-05T11:14:03.887Z,5732.00
2022-10-05T11:15:03.878Z,3428.00
2022-10-05T11:16:04.072Z,3780.00
2022-10-05T11:17:03.854Z,8596.00
2022-10-05T11:18:03.861Z,14084.00
2022-10-05T11:19:03.837Z,10276.00
2022-10-05T11:20:05.040Z,12372.00
2022-10-05T11:21:03.809Z,28000.00
2022-10-05T11:22:08.834Z,26880.00
2022-10-05T11:23:03.795Z,13232.00
2022-10-05T11:24:03.771Z,12936.00
2022-10-05T11:25:03.769Z,11416.00
2022-10-05T11:26:03.788Z,2744.00
2022-10-05T11:27:03.756Z,3480.00
2022-10-05T11:28:03.840Z,7632.00
2022-10-05T11:29:03.728Z,7380.00
2022-10-05T11:30:03.715Z,9340.00
2022-10-05T11:31:03.793Z,4740.00
2022-10-05T11:32:03.683Z,6112.00
2022-10-05T11:33:08.717Z,3588.00
2022-10-05T11:34:03.667Z,1964.00
2022-10-05T11:35:03.649Z,1868.00
2022-10-05T11:36:03.647Z,1888.00
2022-10-05T11:37:03.626Z,1856.00
2022-10-05T11:38:03.641Z,1864.00
2022-10-05T11:39:03.604Z,1816.00
2022-10-05T11:40:03.596Z,1796.00
2022-10-05T11:41:03.607Z,2388.00
2022-10-05T11:42:03.591Z,4980.00
2022-10-05T11:43:03.572Z,2156.00
2022-10-05T11:44:08.574Z,1752.00
2022-10-05T11:45:03.542Z,1708.00
2022-10-05T11:46:03.545Z,1704.00
2022-10-05T11:47:03.523Z,1936.00
2022-10-05T11:48:03.519Z,1644.00
2022-10-05T11:49:03.495Z,1696.00
2022-10-05T11:50:03.482Z,1600.00
2022-10-05T11:51:03.485Z,1568.00
2022-10-05T11:52:03.467Z,2340.00
2022-10-05T11:53:03.449Z,2320.00
2022-10-05T11:54:03.453Z,2328.00
2022-10-05T11:55:11.426Z,2148.00
2022-10-05T11:56:03.414Z,2040.00
2022-10-05T11:57:03.408Z,2636.00
2022-10-05T11:58:03.419Z,1712.00
2022-10-05T11:59:03.406Z,1736.00
2022-10-05T12:00:03.373Z,1776.00
2022-10-05T12:01:03.382Z,2616.00
2022-10-05T12:02:03.364Z,12272.00
2022-10-05T12:03:03.476Z,22368.00
2022-10-05T12:04:03.419Z,16992.00
2022-10-05T12:05:03.324Z,10988.00
2022-10-05T12:06:08.327Z,7280.00
2022-10-05T12:07:03.295Z,7076.00
2022-10-05T12:08:03.281Z,7620.00
2022-10-05T12:09:03.281Z,3748.00
2022-10-05T12:10:03.265Z,3932.00
2022-10-05T12:11:03.253Z,3616.00
2022-10-05T12:12:03.241Z,5328.00
2022-10-05T12:13:03.226Z,7572.00
2022-10-05T12:14:03.248Z,6808.00
2022-10-05T12:15:03.214Z,15936.00
2022-10-05T12:16:03.255Z,11884.00
2022-10-05T12:17:08.210Z,6436.00
2022-10-05T12:18:03.171Z,8412.00
2022-10-05T12:19:03.188Z,16864.00
2022-10-05T12:20:03.230Z,16192.00
2022-10-05T12:21:03.166Z,10644.00
2022-10-05T12:22:03.123Z,13112.00
2022-10-05T12:23:03.117Z,6656.00
2022-10-05T12:24:03.133Z,10696.00
2022-10-05T12:25:03.093Z,3300.00
2022-10-05T12:26:03.075Z,3312.00
2022-10-05T12:27:03.065Z,2196.00
2022-10-05T12:28:08.132Z,2296.00
2022-10-05T12:29:03.078Z,1920.00
2022-10-05T12:30:03.158Z,2256.00
2022-10-05T12:31:03.104Z,5332.00
2022-10-05T12:32:03.018Z,7036.00
2022-10-05T12:33:02.999Z,3436.00
2022-10-05T12:34:02.988Z,1980.00
2022-10-05T12:35:02.988Z,4184.00
2022-10-05T12:36:02.961Z,2112.00
2022-10-05T12:37:04.454Z,2456.00
2022-10-05T12:38:02.961Z,4648.00
2022-10-05T12:39:07.958Z,7108.00
2022-10-05T12:40:03.097Z,8652.00
2022-10-05T12:41:02.905Z,7388.00
2022-10-05T12:42:02.901Z,5544.00
2022-10-05T12:43:02.891Z,5784.00
2022-10-05T12:44:02.874Z,3920.00
2022-10-05T12:45:02.877Z,3232.00
2022-10-05T12:46:02.890Z,2776.00
2022-10-05T12:47:02.837Z,2004.00
2022-10-05T12:48:02.828Z,1852.00
2022-10-05T12:49:02.841Z,1800.00
2022-10-05T12:50:07.846Z,1816.00
2022-10-05T12:51:02.817Z,1808.00
2022-10-05T12:52:02.823Z,1860.00
2022-10-05T12:53:02.779Z,1864.00
2022-10-05T12:54:02.760Z,1824.00
2022-10-05T12:55:02.768Z,1784.00
2022-10-05T12:56:02.743Z,1780.00
2022-10-05T12:57:02.721Z,1760.00
2022-10-05T12:58:02.718Z,1716.00
2022-10-05T12:59:02.718Z,1696.00
2022-10-05T13:00:02.702Z,1668.00
2022-10-05T13:01:07.752Z,1660.00
2022-10-05T13:02:02.710Z,1660.00
2022-10-05T13:03:02.660Z,1604.00
2022-10-05T13:04:02.639Z,1564.00
2022-10-05T13:05:02.647Z,1552.00
2022-10-05T13:06:02.987Z,1496.00
2022-10-05T13:07:02.615Z,1444.00
2022-10-05T13:08:02.611Z,1420.00
2022-10-05T13:09:02.584Z,1408.00
2022-10-05T13:10:02.578Z,1468.00
2022-10-05T13:11:02.583Z,1500.00
2022-10-05T13:12:07.589Z,1500.00
2022-10-05T13:13:02.559Z,1456.00
2022-10-05T13:14:02.544Z,1476.00
2022-10-05T13:15:02.514Z,1472.00
2022-10-05T13:16:02.655Z,1436.00
2022-10-05T13:17:02.514Z,1392.00
2022-10-05T13:18:02.482Z,1376.00
2022-10-05T13:19:02.470Z,1352.00
2022-10-05T13:20:02.471Z,1352.00
2022-10-05T13:21:02.457Z,1360.00
2022-10-05T13:22:02.435Z,1352.00
2022-10-05T13:23:07.451Z,1344.00
2022-10-05T13:24:02.420Z,1356.00
2022-10-05T13:25:02.403Z,1344.00
2022-10-05T13:26:02.408Z,1344.00
2022-10-05T13:27:02.400Z,1360.00
2022-10-05T13:28:02.463Z,1352.00
2022-10-05T13:29:02.372Z,1356.00
2022-10-05T13:30:02.347Z,1340.00
2022-10-05T13:31:02.442Z,1320.00
2022-10-05T13:32:02.320Z,1308.00
2022-10-05T13:33:02.389Z,1320.00
2022-10-05T13:34:07.322Z,1320.00
2022-10-05T13:35:02.299Z,1304.00
2022-10-05T13:36:02.272Z,1296.00
2022-10-05T13:37:02.278Z,1288.00
2022-10-05T13:38:02.254Z,1296.00
2022-10-05T13:39:02.240Z,1292.00
2022-10-05T13:40:02.234Z,1308.00
2022-10-05T13:41:02.216Z,1308.00
2022-10-05T13:42:02.214Z,1328.00
2022-10-05T13:43:02.215Z,1340.00
2022-10-05T13:44:02.180Z,1340.00
2022-10-05T13:45:07.197Z,1316.00
2022-10-05T13:46:02.244Z,1304.00
2022-10-05T13:47:02.179Z,1256.00
2022-10-05T13:48:02.156Z,1280.00
2022-10-05T13:49:02.180Z,1324.00
2022-10-05T13:50:02.123Z,1348.00
2022-10-05T13:51:02.104Z,1348.00
2022-10-05T13:52:02.098Z,1356.00
2022-10-05T13:53:02.106Z,1416.00
2022-10-05T13:54:02.078Z,1480.00
2022-10-05T13:55:02.064Z,1504.00
2022-10-05T13:56:07.072Z,1516.00
2022-10-05T13:57:02.046Z,1536.00
2022-10-05T13:58:02.025Z,1560.00
2022-10-05T13:59:02.010Z,1524.00
2022-10-05T14:00:01.998Z,1468.00
2022-10-05T14:01:02.002Z,1308.00
2022-10-05T14:02:02.071Z,1352.00
2022-10-05T14:03:02.073Z,1468.00
2022-10-05T14:04:02.669Z,1448.00
2022-10-05T14:05:01.968Z,1400.00
2022-10-05T14:06:01.936Z,1416.00
2022-10-05T14:07:06.959Z,1496.00
2022-10-05T14:08:01.903Z,1508.00
2022-10-05T14:09:01.913Z,1428.00
2022-10-05T14:10:01.884Z,1332.00
2022-10-05T14:11:01.883Z,1300.00
2022-10-05T14:12:01.902Z,1348.00
2022-10-05T14:13:01.873Z,1284.00
2022-10-05T14:14:01.862Z,1308.00
2022-10-05T14:15:01.889Z,1332.00
2022-10-05T14:16:01.929Z,1348.00
2022-10-05T14:18:06.823Z,1332.00
2022-10-05T14:19:01.803Z,1392.00
2022-10-05T14:20:01.871Z,1380.00
2022-10-05T14:21:01.781Z,1356.00
2022-10-05T14:22:01.852Z,1344.00
2022-10-05T14:23:01.740Z,1304.00
2022-10-05T14:24:01.728Z,1336.00
2022-10-05T14:25:01.720Z,1304.00
2022-10-05T14:26:04.448Z,1304.00
2022-10-05T14:27:01.712Z,1296.00
2022-10-05T14:28:01.770Z,1288.00
2022-10-05T14:29:06.691Z,1296.00
2022-10-05T14:30:01.695Z,1272.00
2022-10-05T14:31:01.657Z,1276.00
2022-10-05T14:32:01.781Z,1216.00
2022-10-05T14:33:01.687Z,1268.00
2022-10-05T14:34:01.613Z,1164.00
2022-10-05T14:35:01.612Z,1168.00
2022-10-05T14:36:01.588Z,1144.00
2022-10-05T14:37:01.627Z,1180.00
2022-10-05T14:38:01.597Z,1160.00
2022-10-05T14:39:01.567Z,1100.00
2022-10-05T14:40:06.568Z,1032.00
2022-10-05T14:41:01.571Z,1044.00
2022-10-05T14:42:01.616Z,1076.00
2022-10-05T14:43:01.507Z,1104.00
2022-10-05T14:44:02.138Z,1096.00
2022-10-05T14:45:01.493Z,1124.00
2022-10-05T14:46:01.670Z,1100.00
2022-10-05T14:47:01.516Z,1136.00
2022-10-05T14:48:01.476Z,1128.00
2022-10-05T14:49:01.441Z,1152.00
2022-10-05T14:50:01.434Z,1140.00
2022-10-05T14:51:06.446Z,1172.00
2022-10-05T14:52:01.424Z,1200.00
2022-10-05T14:53:01.424Z,1140.00
2022-10-05T14:54:01.407Z,1136.00
2022-10-05T14:55:01.396Z,1136.00
2022-10-05T14:56:01.365Z,1164.00
2022-10-05T14:57:01.364Z,1168.00
2022-10-05T14:58:01.342Z,1148.00
2022-10-05T14:59:01.336Z,1144.00
2022-10-05T15:00:01.328Z,1176.00
2022-10-05T15:01:01.367Z,1156.00
2022-10-05T15:02:06.362Z,1116.00
2022-10-05T15:03:01.308Z,1104.00
2022-10-05T15:04:01.277Z,1084.00
2022-10-05T15:05:01.283Z,1084.00
2022-10-05T15:06:01.251Z,1068.00
2022-10-05T15:07:04.072Z,1096.00
2022-10-05T15:08:01.250Z,1116.00
2022-10-05T15:09:01.276Z,1124.00
2022-10-05T15:10:01.218Z,1152.00
2022-10-05T15:11:01.197Z,1164.00
2022-10-05T15:12:01.195Z,1192.00
2022-10-05T15:13:11.219Z,1204.00
2022-10-05T15:14:02.164Z,1220.00
2022-10-05T15:15:01.149Z,1200.00
2022-10-05T15:16:01.160Z,1228.00
2022-10-05T15:17:01.249Z,1248.00
2022-10-05T15:18:01.124Z,1172.00
2022-10-05T15:19:01.123Z,1148.00
2022-10-05T15:20:01.101Z,1120.00
2022-10-05T15:21:01.083Z,1104.00
2022-10-05T15:22:01.124Z,1088.00
2022-10-05T15:23:01.061Z,1068.00
2022-10-05T15:24:06.171Z,1056.00
2022-10-05T15:25:01.036Z,1036.00
2022-10-05T15:26:01.057Z,1008.00
2022-10-05T15:27:01.053Z,1012.00
2022-10-05T15:28:01.075Z,960.00
2022-10-05T15:29:00.991Z,952.00
2022-10-05T15:30:00.997Z,924.00
2022-10-05T15:31:01.005Z,904.00
2022-10-05T15:32:00.964Z,896.00
2022-10-05T15:33:00.959Z,884.00
2022-10-05T15:34:00.937Z,856.00
2022-10-05T15:35:05.946Z,896.00
2022-10-05T15:36:00.919Z,876.00
2022-10-05T15:37:00.910Z,872.00
2022-10-05T15:38:00.921Z,860.00
2022-10-05T15:39:00.941Z,860.00
2022-10-05T15:40:00.889Z,868.00
2022-10-05T15:41:00.855Z,864.00
2022-10-05T15:42:00.854Z,880.00
2022-10-05T15:43:00.894Z,896.00
2022-10-05T15:44:00.831Z,880.00
2022-10-05T15:45:00.887Z,868.00
2022-10-05T15:46:05.880Z,860.00
2022-10-05T15:47:00.790Z,824.00
2022-10-05T15:48:00.802Z,788.00
2022-10-05T15:49:00.778Z,780.00
2022-10-05T15:50:00.773Z,772.00